createdAt,value
2022-09-02T00:00:46.529Z,18.30
2022-09-02T00:03:15.639Z,18.30
2022-09-02T00:05:44.158Z,18.30
2022-09-02T00:08:12.864Z,18.20
2022-09-02T00:10:45.221Z,18.20
2022-09-02T00:13:16.300Z,18.20
2022-09-02T00:15:47.187Z,18.20
2022-09-02T00:18:18.131Z,18.20
2022-09-02T00:20:49.819Z,18.10
2022-09-02T00:23:18.159Z,18.10
2022-09-02T00:25:46.616Z,18.10
2022-09-02T00:28:17.326Z,18.10
2022-09-02T00:30:50.431Z,18.10
2022-09-02T00:33:20.321Z,18.00
2022-09-02T00:35:48.876Z,18.00
2022-09-02T00:38:17.894Z,18.00
2022-09-02T00:40:49.008Z,18.00
2022-09-02T00:43:25.025Z,18.00
2022-09-02T00:45:55.935Z,17.90
2022-09-02T00:48:24.494Z,17.90
2022-09-02T00:50:53.198Z,17.90
2022-09-02T00:53:22.595Z,17.90
2022-09-02T00:55:52.246Z,17.90
2022-09-02T00:58:23.290Z,17.80
2022-09-02T01:00:57.748Z,17.80
2022-09-02T01:03:29.259Z,17.80
2022-09-02T01:05:59.320Z,17.80
2022-09-02T01:08:34.657Z,17.70
2022-09-02T01:11:06.715Z,17.70
2022-09-02T01:13:40.076Z,17.70
2022-09-02T01:16:15.928Z,17.70
2022-09-02T01:18:50.191Z,17.70
2022-09-02T01:21:18.783Z,17.60
2022-09-02T01:23:49.767Z,17.60
2022-09-02T01:26:19.541Z,17.60
2022-09-02T01:28:48.005Z,17.60
2022-09-02T01:31:16.408Z,17.60
2022-09-02T01:33:45.424Z,17.60
2022-09-02T01:36:14.575Z,17.60
2022-09-02T01:38:42.947Z,17.60
2022-09-02T01:41:13.038Z,17.60
2022-09-02T01:43:41.405Z,17.60
2022-09-02T01:46:10.301Z,17.60
2022-09-02T01:48:38.755Z,17.60
2022-09-02T01:51:07.627Z,17.50
2022-09-02T01:53:36.644Z,17.50
2022-09-02T01:56:07.548Z,17.50
2022-09-02T01:58:37.955Z,17.50
2022-09-02T02:01:06.759Z,17.40
2022-09-02T02:03:36.957Z,17.40
2022-09-02T02:06:11.254Z,17.40
2022-09-02T02:08:41.427Z,17.30
2022-09-02T02:11:11.586Z,17.30
2022-09-02T02:13:41.162Z,17.30
2022-09-02T02:16:09.584Z,17.20
2022-09-02T02:18:37.928Z,17.20
2022-09-02T02:21:06.445Z,17.20
2022-09-02T02:23:34.847Z,17.10
2022-09-02T02:26:03.166Z,17.10
2022-09-02T02:28:31.582Z,17.10
2022-09-02T02:31:01.837Z,17.10
2022-09-02T02:33:35.981Z,17.10
2022-09-02T02:36:07.960Z,17.00
2022-09-02T02:38:37.983Z,17.00
2022-09-02T02:41:07.918Z,17.00
2022-09-02T02:43:37.158Z,17.00
2022-09-02T02:46:08.471Z,17.00
2022-09-02T02:48:39.196Z,17.00
2022-09-02T02:51:08.768Z,17.00
2022-09-02T02:53:37.427Z,17.00
2022-09-02T02:56:06.385Z,17.00
2022-09-02T02:58:34.990Z,17.00
2022-09-02T03:01:04.209Z,17.00
2022-09-02T03:03:34.088Z,17.00
2022-09-02T03:06:02.936Z,17.00
2022-09-02T03:08:33.661Z,17.00
2022-09-02T03:11:03.020Z,17.00
2022-09-02T03:13:52.257Z,17.00
2022-09-02T03:16:21.101Z,17.00
2022-09-02T03:18:52.020Z,17.00
2022-09-02T03:21:20.995Z,17.00
2022-09-02T03:23:49.987Z,16.90
2022-09-02T03:26:20.197Z,16.90
2022-09-02T03:28:50.383Z,16.90
2022-09-02T03:31:22.255Z,16.90
2022-09-02T03:33:52.459Z,17.00
2022-09-02T03:36:24.424Z,16.90
2022-09-02T03:38:53.149Z,16.90
2022-09-02T03:41:22.069Z,16.90
2022-09-02T03:43:51.526Z,17.00
2022-09-02T03:46:20.318Z,17.00
2022-09-02T03:48:51.823Z,17.00
2022-09-02T03:51:23.154Z,16.90
2022-09-02T03:53:52.005Z,17.00
2022-09-02T03:56:21.356Z,16.90
2022-09-02T03:59:11.454Z,16.90
2022-09-02T04:01:40.694Z,16.90
2022-09-02T04:04:09.144Z,16.90
2022-09-02T04:06:41.068Z,16.90
2022-09-02T04:09:09.418Z,16.90
2022-09-02T04:11:42.759Z,16.90
2022-09-02T04:14:13.344Z,16.90
2022-09-02T04:16:42.290Z,16.90
2022-09-02T04:19:10.854Z,16.90
2022-09-02T04:21:43.246Z,16.80
2022-09-02T04:24:14.045Z,16.90
2022-09-02T04:26:47.013Z,16.90
2022-09-02T04:29:18.982Z,16.90
2022-09-02T04:31:49.800Z,16.90
2022-09-02T04:34:19.175Z,16.90
2022-09-02T04:36:51.061Z,16.90
2022-09-02T04:39:20.456Z,16.90
2022-09-02T04:41:48.844Z,16.90
2022-09-02T04:44:17.578Z,16.90
2022-09-02T04:46:50.416Z,17.00
2022-09-02T04:49:21.413Z,17.00
2022-09-02T04:51:55.278Z,17.10
2022-09-02T04:54:25.454Z,17.10
2022-09-02T04:56:55.715Z,17.10
2022-09-02T04:59:25.642Z,17.20
2022-09-02T05:02:15.281Z,17.20
2022-09-02T05:04:44.477Z,17.30
2022-09-02T05:07:21.874Z,17.30
2022-09-02T05:09:51.385Z,17.30
2022-09-02T05:12:20.877Z,17.30
2022-09-02T05:15:00.224Z,17.40
2022-09-02T05:17:32.004Z,17.40
2022-09-02T05:20:01.385Z,17.40
2022-09-02T05:22:32.377Z,17.50
2022-09-02T05:25:02.708Z,17.50
2022-09-02T05:27:33.229Z,17.60
2022-09-02T05:30:01.816Z,17.60
2022-09-02T05:32:37.030Z,17.70
2022-09-02T05:35:07.575Z,17.70
2022-09-02T05:37:38.523Z,17.80
2022-09-02T05:40:10.425Z,17.80
2022-09-02T05:42:43.590Z,17.90
2022-09-02T05:45:14.051Z,17.90
2022-09-02T05:47:45.618Z,18.00
2022-09-02T05:50:15.090Z,18.00
2022-09-02T05:52:51.206Z,18.10
2022-09-02T05:55:21.007Z,18.20
2022-09-02T05:57:50.515Z,18.20
2022-09-02T06:00:19.096Z,18.30
2022-09-02T06:02:56.876Z,18.30
2022-09-02T06:05:29.959Z,18.40
2022-09-02T06:08:08.747Z,18.50
2022-09-02T06:10:43.094Z,18.50
2022-09-02T06:13:15.795Z,18.60
2022-09-02T06:15:45.267Z,18.70
2022-09-02T06:18:15.646Z,18.80
2022-09-02T06:20:48.956Z,18.80
2022-09-02T06:23:19.369Z,18.90
2022-09-02T06:25:50.116Z,19.00
2022-09-02T06:28:19.735Z,19.10
2022-09-02T06:30:50.163Z,19.10
2022-09-02T06:33:23.404Z,19.20
2022-09-02T06:35:53.183Z,19.30
2022-09-02T06:38:23.194Z,19.50
2022-09-02T06:40:54.812Z,19.70
2022-09-02T06:43:39.963Z,19.80
2022-09-02T06:46:23.429Z,20.00
2022-09-02T06:48:55.353Z,20.20
2022-09-02T06:51:27.360Z,20.40
2022-09-02T06:53:59.057Z,20.60
2022-09-02T06:56:32.697Z,20.80
2022-09-02T06:59:01.629Z,21.00
2022-09-02T07:01:50.498Z,21.10
2022-09-02T07:04:39.035Z,21.20
2022-09-02T07:07:12.005Z,21.30
2022-09-02T07:09:47.670Z,21.40
2022-09-02T07:12:19.691Z,21.50
2022-09-02T07:14:53.294Z,21.50
2022-09-02T07:17:30.426Z,21.60
2022-09-02T07:20:04.774Z,21.70
2022-09-02T07:22:39.450Z,21.70
2022-09-02T07:25:12.240Z,21.80
2022-09-02T07:27:41.296Z,22.00
2022-09-02T07:30:11.317Z,22.20
2022-09-02T07:32:42.197Z,22.50
2022-09-02T07:35:11.158Z,22.80
2022-09-02T07:37:40.617Z,23.10
2022-09-02T07:40:13.651Z,23.70
2022-09-02T07:42:42.190Z,24.70
2022-09-02T07:45:11.927Z,25.70
2022-09-02T07:47:42.366Z,26.70
2022-09-02T07:50:17.244Z,27.50
2022-09-02T07:52:50.567Z,28.20
2022-09-02T07:55:21.256Z,28.90
2022-09-02T07:57:50.052Z,29.30
2022-09-02T08:00:23.117Z,29.70
2022-09-02T08:02:53.391Z,30.10
2022-09-02T08:05:29.324Z,30.40
2022-09-02T08:07:57.730Z,30.90
2022-09-02T08:10:29.530Z,31.30
2022-09-02T08:13:00.325Z,31.70
2022-09-02T08:15:30.485Z,32.00
2022-09-02T08:17:59.672Z,32.40
2022-09-02T08:20:30.465Z,32.80
2022-09-02T08:23:10.751Z,33.30
2022-09-02T08:25:42.521Z,33.90
2022-09-02T08:28:11.357Z,34.40
2022-09-02T08:30:40.209Z,34.80
2022-09-02T08:33:08.478Z,35.10
2022-09-02T08:35:36.996Z,35.40
2022-09-02T08:38:05.904Z,35.50
2022-09-02T08:40:38.593Z,35.50
2022-09-02T08:43:22.139Z,35.60
2022-09-02T08:45:54.340Z,35.60
2022-09-02T08:48:29.748Z,35.50
2022-09-02T08:51:04.545Z,35.70
2022-09-02T08:53:37.577Z,36.00
2022-09-02T08:56:09.736Z,36.20
2022-09-02T08:58:42.278Z,36.50
2022-09-02T09:01:20.459Z,36.90
2022-09-02T09:04:06.405Z,37.20
2022-09-02T09:06:47.597Z,37.40
2022-09-02T09:09:23.491Z,37.40
2022-09-02T09:12:00.692Z,37.30
2022-09-02T09:14:36.356Z,37.20
2022-09-02T09:17:13.066Z,37.10
2022-09-02T09:19:52.003Z,37.00
2022-09-02T09:22:23.157Z,37.00
2022-09-02T09:24:52.356Z,37.00
2022-09-02T09:27:22.645Z,37.10
2022-09-02T09:29:53.875Z,37.20
2022-09-02T09:32:28.645Z,37.20
2022-09-02T09:35:01.734Z,37.20
2022-09-02T09:37:36.620Z,37.10
2022-09-02T09:40:25.240Z,37.20
2022-09-02T09:42:57.562Z,37.30
2022-09-02T09:45:33.610Z,37.20
2022-09-02T09:48:22.890Z,37.20
2022-09-02T09:51:12.488Z,37.20
2022-09-02T09:53:41.461Z,37.10
2022-09-02T09:56:32.332Z,37.00
2022-09-02T09:59:10.469Z,37.00
2022-09-02T10:01:40.150Z,37.10
2022-09-02T10:04:42.268Z,37.20
2022-09-02T10:07:00.624Z,37.30
2022-09-02T10:09:35.216Z,37.40
2022-09-02T10:12:06.196Z,37.60
2022-09-02T10:14:37.507Z,37.70
2022-09-02T10:17:22.966Z,37.80
2022-09-02T10:19:56.545Z,37.80
2022-09-02T10:22:59.756Z,37.60
2022-09-02T10:25:38.455Z,37.50
2022-09-02T10:28:19.435Z,37.50
2022-09-02T10:30:56.502Z,37.50
2022-09-02T10:33:37.612Z,37.60
2022-09-02T10:36:18.116Z,37.70
2022-09-02T10:38:50.674Z,37.80
2022-09-02T10:41:34.880Z,37.80
2022-09-02T10:44:27.834Z,37.90
2022-09-02T10:47:02.367Z,37.90
2022-09-02T10:49:55.176Z,37.90
2022-09-02T10:52:45.369Z,37.90
2022-09-02T10:55:21.855Z,37.90
2022-09-02T10:57:55.182Z,37.60
2022-09-02T11:00:25.006Z,37.40
2022-09-02T11:02:56.612Z,37.30
2022-09-02T11:05:29.340Z,37.30
2022-09-02T11:08:05.086Z,37.30
2022-09-02T11:10:39.203Z,37.40
2022-09-02T11:13:14.597Z,37.40
2022-09-02T11:15:48.676Z,37.40
2022-09-02T11:18:23.805Z,37.30
2022-09-02T11:21:04.528Z,37.20
2022-09-02T11:23:41.580Z,37.10
2022-09-02T11:26:17.343Z,37.10
2022-09-02T11:28:54.188Z,37.10
2022-09-02T11:31:32.837Z,37.10
2022-09-02T11:34:06.540Z,37.10
2022-09-02T11:36:41.014Z,37.00
2022-09-02T11:39:21.762Z,36.90
2022-09-02T11:42:24.106Z,36.90
2022-09-02T11:45:10.622Z,36.70
2022-09-02T11:48:02.336Z,36.60
2022-09-02T11:51:00.045Z,36.70
2022-09-02T11:53:32.168Z,36.70
2022-09-02T11:56:05.276Z,36.80
2022-09-02T11:58:39.539Z,37.00
2022-09-02T12:01:34.835Z,37.20
2022-09-02T12:04:48.558Z,37.40
2022-09-02T12:07:29.741Z,37.60
2022-09-02T12:10:02.755Z,38.00
2022-09-02T12:13:08.510Z,38.30
2022-09-02T12:15:40.645Z,38.60
2022-09-02T12:18:15.079Z,38.70
2022-09-02T12:21:16.429Z,38.90
2022-09-02T12:24:22.264Z,39.10
2022-09-02T12:27:34.374Z,39.20
2022-09-02T12:30:02.707Z,39.40
2022-09-02T12:33:05.577Z,39.50
2022-09-02T12:35:52.836Z,39.80
2022-09-02T12:38:40.068Z,40.00
2022-09-02T12:41:27.700Z,40.20
2022-09-02T12:44:31.415Z,40.20
2022-09-02T12:47:06.348Z,40.00
2022-09-02T12:49:51.655Z,39.90
2022-09-02T12:52:43.868Z,40.00
2022-09-02T12:55:17.314Z,40.00
2022-09-02T12:57:49.785Z,40.20
2022-09-02T13:00:28.686Z,40.50
2022-09-02T13:03:09.618Z,40.70
2022-09-02T13:05:53.334Z,40.90
2022-09-02T13:09:16.437Z,41.00
2022-09-02T13:12:30.193Z,41.40
2022-09-02T13:15:23.866Z,41.60
2022-09-02T13:18:30.006Z,41.50
2022-09-02T13:21:35.828Z,41.00
2022-09-02T13:24:52.204Z,40.30
2022-09-02T13:27:53.237Z,39.40
2022-09-02T13:30:32.319Z,38.40
2022-09-02T13:33:07.468Z,37.60
2022-09-02T13:35:40.453Z,36.90
2022-09-02T13:38:12.316Z,36.30
2022-09-02T13:40:43.813Z,35.80
2022-09-02T13:43:19.827Z,35.30
2022-09-02T13:45:51.054Z,34.90
2022-09-02T13:48:21.724Z,34.70
2022-09-02T13:50:51.644Z,34.30
2022-09-02T13:53:53.895Z,33.80
2022-09-02T13:56:17.579Z,33.30
2022-09-02T13:58:48.913Z,32.50
2022-09-02T14:01:29.086Z,31.90
2022-09-02T14:04:00.112Z,31.20
2022-09-02T14:06:33.208Z,30.60
2022-09-02T14:09:03.979Z,30.10
2022-09-02T14:11:39.451Z,29.70
2022-09-02T14:14:08.948Z,29.30
2022-09-02T14:16:38.667Z,29.00
2022-09-02T14:19:14.480Z,28.70
2022-09-02T14:21:48.388Z,28.40
2022-09-02T14:24:19.819Z,28.20
2022-09-02T14:26:50.949Z,28.10
2022-09-02T14:29:21.236Z,28.20
2022-09-02T14:32:10.463Z,28.40
2022-09-02T14:34:40.429Z,28.60
2022-09-02T14:37:24.291Z,28.70
2022-09-02T14:40:07.453Z,28.90
2022-09-02T14:42:43.804Z,29.00
2022-09-02T14:45:13.275Z,29.00
2022-09-02T14:47:43.627Z,29.00
2022-09-02T14:50:15.511Z,29.00
2022-09-02T14:52:49.674Z,28.90
2022-09-02T14:55:46.793Z,28.80
2022-09-02T14:58:16.274Z,28.70
2022-09-02T15:00:47.437Z,28.60
2022-09-02T15:03:17.818Z,28.40
2022-09-02T15:05:46.655Z,28.30
2022-09-02T15:08:16.074Z,28.10
2022-09-02T15:10:45.823Z,28.00
2022-09-02T15:13:20.146Z,27.90
2022-09-02T15:15:50.464Z,27.80
2022-09-02T15:18:20.276Z,27.80
2022-09-02T15:20:48.685Z,27.80
2022-09-02T15:23:17.244Z,27.80
2022-09-02T15:25:45.599Z,27.80
2022-09-02T15:28:14.349Z,27.80
2022-09-02T15:30:42.700Z,27.70
2022-09-02T15:33:16.675Z,27.70
2022-09-02T15:35:47.820Z,27.60
2022-09-02T15:38:17.146Z,27.50
2022-09-02T15:40:46.097Z,27.30
2022-09-02T15:43:16.271Z,27.20
2022-09-02T15:45:48.052Z,27.10
2022-09-02T15:48:16.913Z,27.00
2022-09-02T15:50:46.630Z,26.90
2022-09-02T15:53:17.366Z,26.90
2022-09-02T15:55:45.656Z,26.80
2022-09-02T15:58:13.947Z,26.70
2022-09-02T16:00:43.921Z,26.60
2022-09-02T16:03:12.391Z,26.50
2022-09-02T16:05:43.242Z,26.40
2022-09-02T16:08:11.602Z,26.30
2022-09-02T16:10:41.346Z,26.30
2022-09-02T16:13:10.045Z,26.20
2022-09-02T16:15:38.381Z,26.10
2022-09-02T16:18:06.804Z,26.00
2022-09-02T16:20:35.072Z,25.90
2022-09-02T16:23:03.578Z,25.80
2022-09-02T16:25:31.974Z,25.70
2022-09-02T16:28:02.149Z,25.60
2022-09-02T16:30:31.067Z,25.50
2022-09-02T16:33:00.041Z,25.50
2022-09-02T16:35:28.381Z,25.30
2022-09-02T16:37:57.501Z,25.30
2022-09-02T16:40:25.842Z,25.20
2022-09-02T16:42:54.094Z,25.00
2022-09-02T16:45:23.766Z,25.00
2022-09-02T16:47:52.074Z,24.90
2022-09-02T16:50:20.348Z,24.70
2022-09-02T16:52:48.640Z,24.70
2022-09-02T16:55:18.785Z,24.60
2022-09-02T16:57:47.134Z,24.40
2022-09-02T17:00:16.988Z,24.40
2022-09-02T17:02:46.678Z,24.30
2022-09-02T17:05:17.503Z,24.20
2022-09-02T17:07:46.801Z,24.10
2022-09-02T17:10:15.377Z,24.00
2022-09-02T17:12:43.727Z,23.90
2022-09-02T17:15:12.415Z,23.80
2022-09-02T17:17:42.345Z,23.80
2022-09-02T17:20:13.224Z,23.70
2022-09-02T17:22:41.924Z,23.60
2022-09-02T17:25:11.005Z,23.50
2022-09-02T17:27:40.124Z,23.40
2022-09-02T17:30:10.877Z,23.30
2022-09-02T17:32:39.547Z,23.20
2022-09-02T17:35:12.201Z,23.10
2022-09-02T17:37:41.136Z,23.00
2022-09-02T17:40:34.098Z,22.90
2022-09-02T17:43:02.754Z,22.80
2022-09-02T17:45:31.177Z,22.60
2022-09-02T17:48:19.004Z,22.60
2022-09-02T17:50:49.047Z,22.40
2022-09-02T17:53:19.156Z,22.40
2022-09-02T17:55:50.031Z,22.20
2022-09-02T17:58:21.613Z,22.10
2022-09-02T18:00:54.743Z,22.10
2022-09-02T18:03:40.529Z,22.00
2022-09-02T18:06:16.237Z,21.90
2022-09-02T18:08:52.916Z,21.90
2022-09-02T18:11:23.215Z,21.80
2022-09-02T18:13:57.428Z,21.70
2022-09-02T18:16:33.489Z,21.60
2022-09-02T18:19:13.838Z,21.60
2022-09-02T18:22:08.299Z,21.50
2022-09-02T18:24:56.428Z,21.40
2022-09-02T18:27:37.900Z,21.30
2022-09-02T18:30:09.188Z,21.20
2022-09-02T18:33:11.294Z,21.10
2022-09-02T18:35:50.671Z,21.10
2022-09-02T18:38:29.814Z,20.90
2022-09-02T18:41:13.846Z,20.80
2022-09-02T18:43:57.346Z,20.70
2022-09-02T18:46:29.023Z,20.60
2022-09-02T18:49:00.515Z,20.50
2022-09-02T18:51:35.711Z,20.40
2022-09-02T18:54:14.369Z,20.30
2022-09-02T18:56:49.979Z,20.30
2022-09-02T18:59:28.618Z,20.20
2022-09-02T19:02:02.044Z,20.10
2022-09-02T19:04:34.322Z,20.00
2022-09-02T19:07:16.828Z,19.80
2022-09-02T19:09:46.578Z,19.80
2022-09-02T19:12:14.840Z,19.70
2022-09-02T19:14:43.293Z,19.60
2022-09-02T19:17:12.622Z,19.50
2022-09-02T19:19:40.976Z,19.50
2022-09-02T19:22:11.827Z,19.40
2022-09-02T19:24:44.005Z,19.40
2022-09-02T19:27:16.557Z,19.30
2022-09-02T19:29:51.379Z,19.30
2022-09-02T19:32:24.034Z,19.20
2022-09-02T19:34:52.727Z,19.20
2022-09-02T19:37:21.407Z,19.10
2022-09-02T19:39:54.224Z,19.10
2022-09-02T19:42:24.460Z,19.00
2022-09-02T19:44:52.779Z,18.90
2022-09-02T19:48:04.982Z,18.90
2022-09-02T19:50:09.997Z,18.80
2022-09-02T19:52:42.007Z,18.80
2022-09-02T19:55:11.709Z,18.70
2022-09-02T19:57:41.544Z,18.60
2022-09-02T20:00:11.519Z,18.50
2022-09-02T20:02:41.167Z,18.50
2022-09-02T20:05:10.866Z,18.40
2022-09-02T20:07:39.807Z,18.30
2022-09-02T20:10:09.667Z,18.30
2022-09-02T20:12:38.073Z,18.20
2022-09-02T20:15:08.322Z,18.10
2022-09-02T20:17:37.097Z,18.00
2022-09-02T20:20:10.026Z,18.00
2022-09-02T20:22:38.317Z,17.90
2022-09-02T20:25:07.127Z,17.80
2022-09-02T20:27:50.527Z,17.80
2022-09-02T20:30:21.232Z,17.70
2022-09-02T20:32:58.227Z,17.60
2022-09-02T20:35:53.918Z,17.60
2022-09-02T20:39:09.884Z,17.50
2022-09-02T20:41:46.603Z,17.40
2022-09-02T20:44:38.518Z,17.30
2022-09-02T20:47:29.604Z,17.30
2022-09-02T20:50:38.923Z,17.20
2022-09-02T20:53:25.203Z,17.10
2022-09-02T20:56:02.993Z,17.10
2022-09-02T20:58:41.685Z,17.10
2022-09-02T21:01:12.733Z,17.00
2022-09-02T21:03:53.037Z,17.00
2022-09-02T21:06:26.757Z,16.90
2022-09-02T21:09:03.958Z,16.90
2022-09-02T21:11:43.287Z,16.80
2022-09-02T21:14:17.239Z,16.70
2022-09-02T21:16:51.002Z,16.70
2022-09-02T21:19:28.836Z,16.60
2022-09-02T21:22:04.401Z,16.60
2022-09-02T21:24:39.128Z,16.50
2022-09-02T21:27:15.714Z,16.50
2022-09-02T21:29:48.865Z,16.50
2022-09-02T21:32:23.857Z,16.40
2022-09-02T21:34:59.176Z,16.40
2022-09-02T21:37:31.873Z,16.40
2022-09-02T21:40:06.828Z,16.30
2022-09-02T21:42:53.794Z,16.30
2022-09-02T21:45:28.369Z,16.30
2022-09-02T21:48:07.049Z,16.30
2022-09-02T21:50:46.676Z,16.20
2022-09-02T21:53:24.202Z,16.20
2022-09-02T21:56:01.848Z,16.20
2022-09-02T21:58:48.676Z,16.20
2022-09-02T22:01:35.413Z,16.10
2022-09-02T22:04:12.185Z,16.10
2022-09-02T22:06:46.098Z,16.10
2022-09-02T22:09:18.089Z,16.10
2022-09-02T22:11:54.392Z,16.00
2022-09-02T22:14:31.708Z,16.00
2022-09-02T22:17:05.829Z,16.00
2022-09-02T22:19:39.166Z,16.00
2022-09-02T22:22:12.970Z,16.00
2022-09-02T22:24:41.295Z,16.00
2022-09-02T22:27:15.068Z,15.90
2022-09-02T22:29:49.287Z,15.90
2022-09-02T22:32:20.749Z,15.90
2022-09-02T22:34:58.355Z,15.90
2022-09-02T22:37:39.310Z,15.90
2022-09-02T22:40:11.618Z,15.80
2022-09-02T22:42:41.727Z,15.80
2022-09-02T22:45:30.936Z,15.80
2022-09-02T22:48:21.423Z,15.80
2022-09-02T22:51:18.847Z,15.80
2022-09-02T22:53:50.775Z,15.70
2022-09-02T22:56:27.321Z,15.70
2022-09-02T22:59:18.310Z,15.70
2022-09-02T23:01:56.873Z,15.60
2022-09-02T23:04:40.179Z,15.60
2022-09-02T23:07:09.567Z,15.50
2022-09-02T23:09:39.517Z,15.50
2022-09-02T23:12:17.198Z,15.50
2022-09-02T23:14:53.457Z,15.50
2022-09-02T23:17:36.639Z,15.40
2022-09-02T23:20:12.661Z,15.40
2022-09-02T23:22:56.875Z,15.30
2022-09-02T23:25:43.687Z,15.30
2022-09-02T23:28:16.865Z,15.30
2022-09-02T23:31:01.223Z,15.30
2022-09-02T23:33:44.230Z,15.20
2022-09-02T23:36:20.205Z,15.20
2022-09-02T23:39:02.846Z,15.10
2022-09-02T23:41:36.197Z,15.10
2022-09-02T23:44:07.367Z,15.10
2022-09-02T23:46:52.140Z,15.00
2022-09-02T23:49:32.648Z,14.90
2022-09-02T23:52:10.345Z,14.90
2022-09-02T23:55:00.149Z,14.80
2022-09-02T23:57:53.675Z,14.80
